Time;durP1;ratioP1;P1;durP2;ratioP2;P2;SDS_P1;SDS_P2;PMS_P1;PMS_P2;Temp;Humidity;BMP_temperature;BMP_pressure;BME280_temperature;BME280_humidity;BME280_pressure;Samples;Min_cycle;Max_cycle;Signal;HPM_P1;HPM_P2
2021/08/15 00:04:54;;;;;;;;;;;;;;;20.86;63.43;101144.44;15687202;28;20036;-59
2021/08/15 00:12:27;;;;;;;1999.90;999.90;;;;;;;20.88;62.71;101153.34;15692149;28;20333;-60
2021/08/15 00:20:00;;;;;;;1999.90;999.90;;;;;;;20.93;63.15;101158.66;15623151;28;20053;-59
2021/08/15 00:27:32;;;;;;;1999.90;999.90;;;;;;;20.64;62.86;101159.63;15622468;28;20045;-60
2021/08/15 00:35:07;;;;;;;1999.90;999.90;;;;;;;20.74;64.44;101161.75;15620960;28;20049;-58
2021/08/15 00:42:39;;;;;;;1999.90;999.90;;;;;;;20.70;63.97;101158.88;15603244;28;20053;-59
2021/08/15 00:50:13;;;;;;;1999.90;999.90;;;;;;;20.53;64.66;101161.53;15660186;28;20441;-62
2021/08/15 00:57:47;;;;;;;1999.90;999.90;;;;;;;20.48;65.20;101157.03;15665063;28;20129;-59
2021/08/15 01:05:21;;;;;;;1999.90;999.90;;;;;;;20.36;65.76;101152.44;15682617;28;20428;-58
2021/08/15 01:12:53;;;;;;;1999.90;999.90;;;;;;;20.18;66.00;101152.25;15680637;28;20045;-59
2021/08/15 01:20:29;;;;;;;1999.90;999.90;;;;;;;20.07;66.50;101151.31;15681485;28;20045;-59
2021/08/15 01:28:02;;;;;;;1999.90;999.90;;;;;;;19.94;67.00;101152.78;15680966;28;20057;-59
2021/08/15 01:35:35;;;;;;;1999.90;999.90;;;;;;;19.81;67.55;101157.91;15681130;28;20433;-59
2021/08/15 01:43:08;;;;;;;1999.90;999.90;;;;;;;19.66;67.80;101155.25;15662226;28;20037;-61
2021/08/15 01:50:41;;;;;;;1999.90;999.90;;;;;;;19.52;68.64;101161.53;15636715;28;20108;-60
2021/08/15 01:58:15;;;;;;;1999.90;999.90;;;;;;;19.51;68.53;101160.72;15617427;28;20041;-60
2021/08/15 02:05:49;;;;;;;1999.90;999.90;;;;;;;19.38;69.18;101153.63;15616352;28;20041;-59
2021/08/15 02:13:30;;;;;;;1999.90;999.90;;;;;;;19.15;69.32;101155.72;15616664;28;20076;-58
2021/08/15 02:21:04;;;;;;;1999.90;999.90;;;;;;;18.73;69.60;101153.84;15615022;28;20052;-59
2021/08/15 02:28:36;;;;;;;1999.90;999.90;;;;;;;18.87;69.84;101156.94;15614806;28;20051;-61
2021/08/15 02:36:10;;;;;;;1999.90;999.90;;;;;;;18.78;70.30;101145.06;15614623;28;20115;-61
2021/08/15 02:43:42;;;;;;;1999.90;999.90;;;;;;;18.64;70.60;101150.41;15615468;28;20057;-59
2021/08/15 02:51:15;;;;;;;1999.90;999.90;;;;;;;18.53;70.65;101140.94;15660764;28;20083;-57
2021/08/15 02:58:48;;;;;;;1999.90;999.90;;;;;;;18.49;70.50;101134.44;15676721;28;20463;-59
2021/08/15 03:06:21;;;;;;;1999.90;999.90;;;;;;;18.40;70.31;101135.50;15680120;28;20056;-59
2021/08/15 03:13:53;;;;;;;1999.90;999.90;;;;;;;18.26;70.86;101123.94;15687789;28;20452;-60
2021/08/15 03:21:29;;;;;;;1999.90;999.90;;;;;;;18.25;70.93;101124.31;15687343;28;20057;-60
2021/08/15 03:29:02;;;;;;;1999.90;999.90;;;;;;;18.01;71.69;101119.81;15700095;22;20077;-54
2021/08/15 03:36:35;;;;;;;1999.90;999.90;;;;;;;17.99;71.88;101114.53;15681530;28;20049;-57
2021/08/15 03:44:07;;;;;;;1999.90;999.90;;;;;;;17.97;72.00;101121.75;15651741;28;21203;-57
2021/08/15 03:51:41;;;;;;;1999.90;999.90;;;;;;;17.88;72.31;101117.16;15618669;28;20095;-59
2021/08/15 03:59:13;;;;;;;1999.90;999.90;;;;;;;17.85;72.26;101115.09;15618526;28;20045;-57
2021/08/15 04:06:47;;;;;;;1999.90;999.90;;;;;;;17.83;72.60;101119.47;15619396;28;20092;-57
2021/08/15 04:14:19;;;;;;;1999.90;999.90;;;;;;;17.75;72.27;101123.34;15617800;28;20037;-56
2021/08/15 04:21:53;;;;;;;1999.90;999.90;;;;;;;17.69;72.41;101134.09;15615891;28;20041;-56
2021/08/15 04:29:25;;;;;;;1999.90;999.90;;;;;;;17.72;72.54;101135.38;15616786;28;20150;-57
2021/08/15 04:36:59;;;;;;;1999.90;999.90;;;;;;;17.91;72.32;101123.25;15617568;28;20153;-58
2021/08/15 04:44:39;;;;;;;1999.90;999.90;;;;;;;17.81;72.59;101127.47;15615235;28;20087;-53
2021/08/15 04:52:13;;;;;;;1999.90;999.90;;;;;;;18.13;71.86;101122.47;15614149;28;20041;-58
2021/08/15 04:59:45;;;;;;;1999.90;999.90;;;;;;;18.48;71.57;101121.50;15615760;28;20060;-57
2021/08/15 05:07:18;;;;;;;1999.90;999.90;;;;;;;18.78;71.41;101125.28;15614497;28;20117;-58
2021/08/15 05:14:51;;;;;;;1999.90;999.90;;;;;;;19.01;70.96;101111.09;15614676;28;20121;-58
2021/08/15 05:22:24;;;;;;;1999.90;999.90;;;;;;;19.21;69.37;101108.94;15629584;28;20389;-57
2021/08/15 05:29:56;;;;;;;1999.90;999.90;;;;;;;19.59;69.91;101114.38;15612531;28;20061;-57
2021/08/15 05:37:30;;;;;;;1999.90;999.90;;;;;;;19.88;69.39;101126.00;15613276;28;20057;-59
2021/08/15 05:45:02;;;;;;;1999.90;999.90;;;;;;;19.98;68.51;101114.00;15627552;28;20070;-59
2021/08/15 05:52:39;;;;;;;1999.90;999.90;;;;;;;20.78;66.28;101128.56;15611888;28;20045;-58
2021/08/15 06:00:12;;;;;;;1999.90;999.90;;;;;;;20.93;64.13;101132.31;15611938;28;20049;-58
2021/08/15 06:07:45;;;;;;;1999.90;999.90;;;;;;;20.97;63.79;101128.31;15610830;28;20059;-59
2021/08/15 06:15:17;;;;;;;1999.90;999.90;;;;;;;21.19;64.26;101134.13;15612827;28;20041;-58
2021/08/15 06:22:51;;;;;;;1999.90;999.90;;;;;;;21.73;62.49;101141.72;15610430;28;20045;-57
2021/08/15 06:30:23;;;;;;;1999.90;999.90;;;;;;;21.94;62.16;101143.03;15609941;28;20060;-58
2021/08/15 06:37:57;;;;;;;1999.90;999.90;;;;;;;22.29;60.87;101130.97;15610494;28;20045;-58
2021/08/15 06:45:30;;;;;;;1999.90;999.90;;;;;;;22.92;60.69;101135.09;15611114;28;20037;-56
2021/08/15 06:53:03;;;;;;;1999.90;999.90;;;;;;;23.54;58.09;101143.91;15548971;28;20061;-57
2021/08/15 07:00:35;;;;;;;1999.90;999.90;;;;;;;22.97;55.72;101148.91;15550032;28;20313;-59
2021/08/15 07:08:09;;;;;;;1999.90;999.90;;;;;;;23.01;58.58;101152.56;15549581;28;20117;-58
2021/08/15 07:15:42;;;;;;;1999.90;999.90;;;;;;;23.69;55.33;101143.91;15550693;28;20050;-58
2021/08/15 07:23:16;;;;;;;1999.90;999.90;;;;;;;24.22;53.49;101135.09;15581413;28;20510;-58
2021/08/15 07:30:48;;;;;;;1999.90;999.90;;;;;;;23.84;54.34;101140.56;15550213;28;20133;-59
2021/08/15 07:38:23;;;;;;;1999.90;999.90;;;;;;;24.43;54.29;101132.13;15548271;28;20041;-56
2021/08/15 07:45:55;;;;;;;1999.90;999.90;;;;;;;25.09;52.87;101134.03;15551582;28;20051;-51
2021/08/15 07:53:29;;;;;;;1999.90;999.90;;;;;;;24.71;52.23;101133.16;15615792;28;20053;-52
2021/08/15 08:01:02;;;;;;;1999.90;999.90;;;;;;;25.66;51.42;101119.13;15619548;28;20045;-51
2021/08/15 08:08:35;;;;;;;1999.90;999.90;;;;;;;25.96;50.82;101123.28;15617192;28;20414;-51
2021/08/15 08:16:07;;;;;;;1999.90;999.90;;;;;;;26.29;50.18;101122.38;15618223;28;20118;-55
2021/08/15 08:23:41;;;;;;;1999.90;999.90;;;;;;;26.18;48.72;101121.72;15617644;28;20087;-55
2021/08/15 08:31:13;;;;;;;1999.90;999.90;;;;;;;26.28;49.77;101106.47;15617297;28;20056;-54
2021/08/15 08:38:47;;;;;;;1999.90;999.90;;;;;;;26.57;47.13;101094.56;15604299;28;20076;-55
2021/08/15 08:46:34;;;;;;;1999.90;999.90;;;;;;;27.67;43.00;101104.00;15616521;28;20034;-51
2021/08/15 08:54:13;;;;;;;1999.90;999.90;;;;;;;26.31;46.29;101099.88;15636593;28;20068;-61
2021/08/15 09:01:45;;;;;;;1999.90;999.90;;;;;;;26.97;44.45;101095.50;15613258;28;20061;-53
2021/08/15 09:09:21;;;;;;;1999.90;999.90;;;;;;;27.67;44.90;101100.34;15637564;28;20072;-51
2021/08/15 09:16:58;;;;;;;1999.90;999.90;;;;;;;27.73;43.24;101067.03;15612411;28;20033;-49
2021/08/15 09:24:45;;;;;;;1999.90;999.90;;;;;;;28.04;41.31;101081.91;15613287;28;20101;-56
2021/08/15 09:32:25;;;;;;;1999.90;999.90;;;;;;;27.75;41.15;101081.75;15716558;22;20048;-58
2021/08/15 09:40:00;;;;;;;1999.90;999.90;;;;;;;28.09;41.62;101053.50;15738872;28;20105;-60
2021/08/15 09:47:32;;;;;;;1999.90;999.90;;;;;;;27.76;44.35;101043.22;15699708;28;20044;-61
2021/08/15 09:55:07;;;;;;;;;;;;;;;27.36;42.79;101042.41;15694464;28;20187;-61
2021/08/15 10:02:39;;;;;;;1999.90;999.90;;;;;;;28.00;41.45;101018.06;15698141;28;19920;-59
2021/08/15 10:10:17;;;;;;;1999.90;999.90;;;;;;;29.02;40.63;101017.50;15656549;28;20053;-59
2021/08/15 10:17:52;;;;;;;1999.90;999.90;;;;;;;29.89;39.35;101017.38;15726991;28;20049;-59
2021/08/15 10:25:38;;;;;;;1999.90;999.90;;;;;;;29.60;39.98;101019.56;15697321;28;20123;-57
2021/08/15 10:33:18;;;;;;;1999.90;999.90;;;;;;;29.07;43.15;101024.75;15655223;28;20060;-59
2021/08/15 10:40:51;;;;;;;1999.90;999.90;;;;;;;29.60;41.01;100985.06;15642413;28;20517;-60
2021/08/15 10:48:24;;;;;;;1999.90;999.90;;;;;;;29.35;39.46;100979.22;15676346;28;20045;-60
2021/08/15 10:56:00;;;;;;;1999.90;999.90;;;;;;;29.33;41.81;100994.84;15676871;28;20140;-59
2021/08/15 11:03:36;;;;;;;1999.90;999.90;;;;;;;29.21;40.00;100984.13;15676780;28;20084;-59
2021/08/15 11:11:12;;;;;;;1999.90;999.90;;;;;;;29.18;40.51;100970.69;15676319;28;20107;-59
2021/08/15 11:19:26;;;;;;;1999.90;999.90;;;;;;;28.29;41.73;100967.38;15675832;28;20586;-59
2021/08/15 11:26:59;;;;;;;1999.90;999.90;;;;;;;29.31;40.85;100962.09;15661100;28;20048;-59
2021/08/15 11:34:32;;;;;;;1999.90;999.90;;;;;;;31.14;36.60;100963.31;15687573;28;20052;-59
2021/08/15 11:42:15;;;;;;;1999.90;999.90;;;;;;;30.88;37.05;100945.38;15652343;28;20170;-60
2021/08/15 11:49:49;;;;;;;1999.90;999.90;;;;;;;30.21;36.88;100942.81;15650231;28;20045;-61
2021/08/15 11:57:22;;;;;;;1999.90;999.90;;;;;;;30.69;38.77;100941.53;15606170;28;20045;-60
2021/08/15 12:04:56;;;;;;;1999.90;999.90;;;;;;;30.83;37.22;100951.72;15622328;28;20402;-61
2021/08/15 12:12:28;;;;;;;1999.90;999.90;;;;;;;28.40;38.72;100947.00;15604814;28;20053;-60
2021/08/15 12:20:19;;;;;;;1999.90;999.90;;;;;;;30.08;36.45;100923.50;15622196;28;20103;-59
2021/08/15 12:27:53;;;;;;;1999.90;999.90;;;;;;;34.56;33.53;100927.69;15622235;28;20398;-59
2021/08/15 12:35:27;;;;;;;1999.90;999.90;;;;;;;35.34;30.78;100917.63;15604706;28;20037;-59
2021/08/15 12:43:01;;;;;;;1999.90;999.90;;;;;;;35.13;29.48;100916.72;15620265;28;20092;-59
2021/08/15 12:50:36;;;;;;;1999.90;999.90;;;;;;;35.37;29.80;100910.81;15663121;28;20202;-61
2021/08/15 12:58:10;;;;;;;1999.90;999.90;;;;;;;31.48;33.96;100901.91;15682983;28;20041;-58
2021/08/15 13:05:45;;;;;;;1999.90;999.90;;;;;;;32.33;35.26;100883.91;15665557;28;20049;-60
2021/08/15 13:13:17;;;;;;;1999.90;999.90;;;;;;;30.83;34.90;100877.63;15677894;28;20037;-62
2021/08/15 13:20:51;;;;;;;1999.90;999.90;;;;;;;30.77;35.95;100875.84;15680404;28;20049;-63
2021/08/15 13:28:23;;;;;;;1999.90;999.90;;;;;;;29.93;37.27;100876.31;15675278;28;20041;-58
2021/08/15 13:35:56;;;;;;;1999.90;999.90;;;;;;;30.81;36.31;100868.66;15663727;28;20264;-62
2021/08/15 13:43:29;;;;;;;1999.90;999.90;;;;;;;30.13;37.07;100841.56;15673844;28;20127;-61
2021/08/15 13:51:03;;;;;;;1999.90;999.90;;;;;;;30.02;36.44;100815.22;15633138;28;20077;-61
2021/08/15 13:58:35;;;;;;;1999.90;999.90;;;;;;;30.34;36.16;100831.34;15617536;28;20053;-61
2021/08/15 14:06:09;;;;;;;1999.90;999.90;;;;;;;29.86;36.67;100819.84;15599809;28;20394;-60
2021/08/15 14:13:41;;;;;;;1999.90;999.90;;;;;;;29.86;38.28;100801.78;15617526;28;20046;-61
2021/08/15 14:21:15;;;;;;;1999.90;999.90;;;;;;;29.74;37.96;100786.16;15617195;28;20045;-61
2021/08/15 14:28:48;;;;;;;1999.90;999.90;;;;;;;29.73;38.22;100775.13;15615768;28;20119;-60
2021/08/15 14:36:21;;;;;;;1999.90;999.90;;;;;;;29.88;38.50;100770.47;15616086;28;20135;-61
2021/08/15 14:43:53;;;;;;;1999.90;999.90;;;;;;;29.57;38.73;100755.97;15598166;28;20095;-58
2021/08/15 14:51:27;;;;;;;1999.90;999.90;;;;;;;29.65;38.24;100745.81;15645752;28;20080;-60
2021/08/15 14:58:59;;;;;;;1999.90;999.90;;;;;;;29.04;37.49;100735.53;15677710;28;20045;-60
2021/08/15 15:06:35;;;;;;;1999.90;999.90;;;;;;;29.51;40.47;100723.34;15688543;28;20040;-62
2021/08/15 15:14:08;;;;;;;1999.90;999.90;;;;;;;29.24;39.53;100715.19;15691290;28;20125;-61
2021/08/15 15:21:41;;;;;;;1999.90;999.90;;;;;;;28.92;38.18;100696.94;15689116;28;20122;-61
2021/08/15 15:29:14;;;;;;;1999.90;999.90;;;;;;;28.79;37.81;100699.00;15671188;28;20494;-63
2021/08/15 15:36:48;;;;;;;1999.90;999.90;;;;;;;29.20;38.28;100700.97;15683402;28;20052;-63
2021/08/15 15:44:20;;;;;;;1999.90;999.90;;;;;;;28.98;40.92;100686.50;15682954;28;20492;-61
2021/08/15 15:51:54;;;;;;;1999.90;999.90;;;;;;;28.99;41.26;100679.50;15610714;28;20053;-59
2021/08/15 15:59:27;;;;;;;1999.90;999.90;;;;;;;29.20;37.83;100677.16;15681719;28;20045;-61
2021/08/15 16:07:00;;;;;;;1999.90;999.90;;;;;;;29.16;38.57;100668.66;15683416;28;20095;-60
2021/08/15 16:14:32;;;;;;;1999.90;999.90;;;;;;;29.11;39.73;100665.56;15647480;28;20419;-62
2021/08/15 16:22:06;;;;;;;1999.90;999.90;;;;;;;28.94;41.15;100657.09;15603522;28;20048;-60
2021/08/15 16:29:38;;;;;;;1999.90;999.90;;;;;;;28.23;42.12;100652.75;15620041;28;20077;-61
2021/08/15 16:37:12;;;;;;;1999.90;999.90;;;;;;;28.38;42.94;100642.50;15621073;28;20495;-59
2021/08/15 16:44:44;;;;;;;1999.90;999.90;;;;;;;28.29;44.03;100640.31;15621957;28;20053;-60
2021/08/15 16:52:18;;;;;;;1999.90;999.90;;;;;;;28.29;43.47;100643.16;15675766;28;20508;-60
2021/08/15 16:59:50;;;;;;;1999.90;999.90;;;;;;;28.18;43.52;100634.06;15678580;28;20051;-63
2021/08/15 17:07:24;;;;;;;1999.90;999.90;;;;;;;28.01;45.62;100623.91;15681953;28;20750;-61
2021/08/15 17:14:56;;;;;;;1999.90;999.90;;;;;;;27.72;46.52;100616.19;15627158;28;20477;-61
2021/08/15 17:22:29;;;;;;;;;;;;;;;27.77;47.38;100614.81;15618500;28;20050;-61
2021/08/15 17:30:01;;;;;;;1999.90;999.90;;;;;;;27.42;45.86;100603.09;15617863;28;19931;-60
2021/08/15 17:37:35;;;;;;;1999.90;999.90;;;;;;;27.46;47.84;100603.78;15667437;28;20133;-62
2021/08/15 17:45:08;;;;;;;1999.90;999.90;;;;;;;27.35;48.75;100591.00;15640351;28;20051;-61
2021/08/15 17:52:43;;;;;;;1999.90;999.90;;;;;;;27.15;48.74;100591.16;15619094;28;20056;-62
2021/08/15 18:00:15;;;;;;;1999.90;999.90;;;;;;;26.88;48.89;100582.81;15618246;28;20045;-63
2021/08/15 18:07:49;;;;;;;1999.90;999.90;;;;;;;26.71;49.99;100588.56;15674028;28;20124;-61
2021/08/15 18:15:21;;;;;;;1999.90;999.90;;;;;;;26.60;48.37;100584.38;15659324;28;20048;-62
2021/08/15 18:22:55;;;;;;;;;;;;;;;26.63;47.41;100584.25;15602338;28;20103;-60
2021/08/15 18:30:27;;;;;;;1999.90;999.90;;;;;;;26.41;49.78;100580.31;15614931;28;20000;-61
2021/08/15 18:38:01;;;;;;;1999.90;999.90;;;;;;;26.11;50.59;100578.53;15613617;28;20041;-60
2021/08/15 18:45:34;;;;;;;1999.90;999.90;;;;;;;25.82;51.88;100570.59;15615441;28;20123;-60
2021/08/15 18:53:08;;;;;;;1999.90;999.90;;;;;;;25.46;53.63;100567.66;15657456;28;20056;-61
2021/08/15 19:00:40;;;;;;;1999.90;999.90;;;;;;;25.15;54.77;100563.38;15623984;28;20422;-62
2021/08/15 19:08:13;;;;;;;1999.90;999.90;;;;;;;24.92;55.49;100559.28;15614151;28;20037;-60
2021/08/15 19:15:46;;;;;;;1999.90;999.90;;;;;;;24.68;56.29;100557.66;15634876;28;20051;-59
2021/08/15 19:23:21;;;;;;;1999.90;999.90;;;;;;;24.48;57.60;100534.75;15622780;28;20045;-60
2021/08/15 19:30:53;;;;;;;1999.90;999.90;;;;;;;24.21;57.85;100528.28;15641157;28;20128;-58
2021/08/15 19:38:27;;;;;;;1999.90;999.90;;;;;;;24.02;58.33;100533.44;15676905;28;20044;-60
2021/08/15 19:46:00;;;;;;;1999.90;999.90;;;;;;;23.80;58.97;100529.28;15647734;28;20045;-63
2021/08/15 19:53:33;;;;;;;1999.90;999.90;;;;;;;23.68;58.98;100533.50;15607378;28;20077;-62
2021/08/15 20:01:06;;;;;;;1999.90;999.90;;;;;;;23.50;59.76;100522.31;15625701;28;20495;-62
2021/08/15 20:09:01;;;;;;;1999.90;999.90;;;;;;;23.48;59.67;100513.41;15608038;28;20042;-60
2021/08/15 20:17:19;;;;;;;1999.90;999.90;;;;;;;23.42;60.01;100502.88;15622206;28;20129;-62
2021/08/15 20:25:23;;;;;;;1999.90;999.90;;;;;;;23.27;60.67;100494.53;15659979;28;20095;-62
2021/08/15 20:33:31;;;;;;;1999.90;999.90;;;;;;;23.18;60.23;100491.41;15676262;28;20083;-60
2021/08/15 20:41:05;;;;;;;1999.90;999.90;;;;;;;22.94;60.39;100470.53;15675866;28;20083;-61
2021/08/15 20:48:51;;;;;;;1999.90;999.90;;;;;;;22.81;60.79;100471.44;15683469;28;20041;-63
2021/08/15 20:56:25;;;;;;;1999.90;999.90;;;;;;;22.65;61.39;100475.69;15665730;28;20401;-63
2021/08/15 21:03:58;;;;;;;1999.90;999.90;;;;;;;22.48;60.97;100468.94;15664605;28;20076;-62
2021/08/15 21:11:31;;;;;;;1999.90;999.90;;;;;;;22.39;62.19;100464.97;15682657;28;20099;-63
2021/08/15 21:19:12;;;;;;;1999.90;999.90;;;;;;;22.19;62.63;100470.41;15662645;28;20049;-60
2021/08/15 21:26:46;;;;;;;1999.90;999.90;;;;;;;22.03;63.23;100455.91;15619812;28;20514;-60
2021/08/15 21:34:18;;;;;;;1999.90;999.90;;;;;;;21.85;63.37;100444.69;15618698;28;20133;-58
2021/08/15 21:41:52;;;;;;;1999.90;999.90;;;;;;;21.65;64.43;100430.19;15604586;28;20056;-61
2021/08/15 21:49:25;;;;;;;1999.90;999.90;;;;;;;21.41;64.70;100422.66;15679423;28;20048;-58
2021/08/15 21:56:59;;;;;;;;;;;;;;;21.34;65.25;100412.13;15679019;28;20056;-59
2021/08/15 22:04:31;;;;;;;1999.90;999.90;;;;;;;21.09;65.82;100411.44;15679805;28;19921;-59
2021/08/15 22:12:05;;;;;;;1999.90;999.90;;;;;;;20.99;66.61;100411.06;15678973;28;20072;-58
2021/08/15 22:19:39;;;;;;;1999.90;999.90;;;;;;;20.85;66.55;100413.16;15644328;28;20068;-60
2021/08/15 22:27:12;;;;;;;1999.90;999.90;;;;;;;20.85;65.76;100416.81;15678748;28;20163;-63
2021/08/15 22:34:46;;;;;;;1999.90;999.90;;;;;;;20.83;64.21;100419.22;15677091;28;20493;-62
2021/08/15 22:42:20;;;;;;;1999.90;999.90;;;;;;;20.88;63.43;100401.00;15678514;28;20036;-57
2021/08/15 22:49:52;;;;;;;1999.90;999.90;;;;;;;20.85;61.49;100404.66;15678024;28;20367;-60
2021/08/15 22:57:25;;;;;;;1999.90;999.90;;;;;;;21.08;59.84;100404.97;15677357;28;20150;-58
2021/08/15 23:04:58;;;;;;;1999.90;999.90;;;;;;;20.91;59.20;100392.47;15668059;28;20091;-60
2021/08/15 23:12:31;;;;;;;1999.90;999.90;;;;;;;21.03;59.93;100396.88;15646988;28;20077;-59
2021/08/15 23:20:05;;;;;;;1999.90;999.90;;;;;;;20.89;60.19;100382.75;15663290;28;20106;-58
2021/08/15 23:27:39;;;;;;;1999.90;999.90;;;;;;;20.70;61.67;100396.19;15617930;28;20179;-57
2021/08/15 23:35:11;;;;;;;1999.90;999.90;;;;;;;20.44;61.75;100386.16;15670396;28;20049;-58
2021/08/15 23:42:45;;;;;;;1999.90;999.90;;;;;;;20.67;61.37;100374.34;15687820;28;20049;-60
2021/08/15 23:50:17;;;;;;;1999.90;999.90;;;;;;;20.48;62.25;100363.47;15642827;28;20037;-57
2021/08/15 23:57:51;;;;;;;1999.90;999.90;;;;;;;20.29;63.47;100353.34;15624974;28;20075;-59
